DAAJ/DJG METAR and TAF weather

Enter ICAO airport designator
Station Type Date Time Source
DAAJ METAR 2019/02/23 23:00 UTC NOAA

DAAJ 232300Z 34012KT CAVOK 14/M05 Q1017


Station Type Date Time Source
DAAJ Decoded METAR 2019/02/23 23:00 UTC NOAA

Djanet, Algeria (DAAJ) 24-33N 009-28E 1054M
Feb 23, 2019 - 06:00 PM EST / 2019.02.23 2300 UTC
Wind: from the NNW (340 degrees) at 14 MPH (12 KT):0
Visibility: greater than 7 mile(s):0
Temperature: 57 F (14 C)
Dew Point: 23 F (-5 C)
Relative Humidity: 26%
Pressure (altimeter): 30.03 in. Hg (1017 hPa)
ob: DAAJ 232300Z 34012KT CAVOK 14/M05 Q1017
cycle: 23

Station Type Date Time Source
DAAJ TAF 2019/02/23 18:33 UTC NOAA

TAF DAAJ 231700Z 2318/2418 32010KT CAVOK


Example: see airport list